sensor_id;sensor_type;location;lat;lon;timestamp;pressure;altitude;pressure_sealevel;temperature;humidity
73024;BME280;61199;47.526;8.538;2023-07-20T00:02:11;96378.88;;;24.36;50.15
73024;BME280;61199;47.526;8.538;2023-07-20T00:04:54;96379.03;;;24.41;50.09
73024;BME280;61199;47.526;8.538;2023-07-20T00:07:21;96384.41;;;24.41;50.01
73024;BME280;61199;47.526;8.538;2023-07-20T00:09:47;96387.53;;;24.38;50.41
73024;BME280;61199;47.526;8.538;2023-07-20T00:12:14;96386.25;;;24.40;50.03
73024;BME280;61199;47.526;8.538;2023-07-20T00:14:41;96384.22;;;24.36;50.48
73024;BME280;61199;47.526;8.538;2023-07-20T00:17:07;96380.56;;;24.31;50.59
73024;BME280;61199;47.526;8.538;2023-07-20T00:19:34;96388.84;;;24.29;50.03
73024;BME280;61199;47.526;8.538;2023-07-20T00:22:01;96380.44;;;24.26;50.18
73024;BME280;61199;47.526;8.538;2023-07-20T00:24:28;96383.97;;;24.20;49.16
73024;BME280;61199;47.526;8.538;2023-07-20T00:26:54;96383.38;;;24.18;49.14
73024;BME280;61199;47.526;8.538;2023-07-20T00:29:20;96385.41;;;24.22;49.79
73024;BME280;61199;47.526;8.538;2023-07-20T00:31:47;96381.47;;;24.25;49.51
73024;BME280;61199;47.526;8.538;2023-07-20T00:34:17;96383.31;;;24.24;49.84
73024;BME280;61199;47.526;8.538;2023-07-20T00:36:43;96379.59;;;24.25;49.42
73024;BME280;61199;47.526;8.538;2023-07-20T00:39:09;96379.78;;;24.30;49.44
73024;BME280;61199;47.526;8.538;2023-07-20T00:41:36;96380.19;;;24.27;49.42
73024;BME280;61199;47.526;8.538;2023-07-20T00:44:04;96386.16;;;24.29;49.10
73024;BME280;61199;47.526;8.538;2023-07-20T00:46:31;96387.22;;;24.28;48.75
73024;BME280;61199;47.526;8.538;2023-07-20T00:48:59;96383.19;;;24.19;49.33
73024;BME280;61199;47.526;8.538;2023-07-20T00:51:26;96384.84;;;24.14;48.84
73024;BME280;61199;47.526;8.538;2023-07-20T00:53:53;96379.50;;;24.14;48.98
73024;BME280;61199;47.526;8.538;2023-07-20T00:56:20;96373.41;;;24.07;48.76
73024;BME280;61199;47.526;8.538;2023-07-20T00:58:46;96374.00;;;24.09;49.07
73024;BME280;61199;47.526;8.538;2023-07-20T01:01:13;96377.91;;;24.06;48.93
73024;BME280;61199;47.526;8.538;2023-07-20T01:03:40;96378.19;;;23.98;48.30
73024;BME280;61199;47.526;8.538;2023-07-20T01:06:26;96386.00;;;24.00;47.36
73024;BME280;61199;47.526;8.538;2023-07-20T01:09:18;96373.06;;;23.97;49.21
73024;BME280;61199;47.526;8.538;2023-07-20T01:12:05;96381.91;;;23.97;49.89
73024;BME280;61199;47.526;8.538;2023-07-20T01:14:34;96385.41;;;23.98;50.33
73024;BME280;61199;47.526;8.538;2023-07-20T01:17:02;96382.50;;;23.99;50.02
73024;BME280;61199;47.526;8.538;2023-07-20T01:19:28;96380.75;;;23.87;50.15
73024;BME280;61199;47.526;8.538;2023-07-20T01:22:36;96376.81;;;23.89;50.83
73024;BME280;61199;47.526;8.538;2023-07-20T01:25:33;96373.53;;;23.87;50.76
73024;BME280;61199;47.526;8.538;2023-07-20T01:30:56;96380.09;;;23.91;51.01
73024;BME280;61199;47.526;8.538;2023-07-20T01:33:26;96373.53;;;23.87;51.62
73024;BME280;61199;47.526;8.538;2023-07-20T01:35:57;96371.06;;;23.86;50.86
73024;BME280;61199;47.526;8.538;2023-07-20T01:38:25;96373.09;;;23.90;50.06
73024;BME280;61199;47.526;8.538;2023-07-20T01:40:52;96375.63;;;23.85;50.45
73024;BME280;61199;47.526;8.538;2023-07-20T01:43:19;96375.09;;;24.01;49.25
73024;BME280;61199;47.526;8.538;2023-07-20T01:45:45;96376.59;;;23.91;49.45
73024;BME280;61199;47.526;8.538;2023-07-20T01:48:12;96375.63;;;23.85;50.27
73024;BME280;61199;47.526;8.538;2023-07-20T01:50:38;96375.19;;;23.88;50.17
73024;BME280;61199;47.526;8.538;2023-07-20T01:53:04;96372.72;;;23.87;49.94
73024;BME280;61199;47.526;8.538;2023-07-20T01:55:31;96367.38;;;23.80;49.77
73024;BME280;61199;47.526;8.538;2023-07-20T01:57:57;96364.56;;;23.75;49.94
73024;BME280;61199;47.526;8.538;2023-07-20T02:00:26;96369.84;;;23.82;49.93
73024;BME280;61199;47.526;8.538;2023-07-20T02:02:52;96377.28;;;23.80;50.35
73024;BME280;61199;47.526;8.538;2023-07-20T02:05:19;96373.63;;;23.74;50.01
73024;BME280;61199;47.526;8.538;2023-07-20T02:07:45;96370.63;;;23.64;50.26
73024;BME280;61199;47.526;8.538;2023-07-20T02:10:12;96372.47;;;23.64;49.78
73024;BME280;61199;47.526;8.538;2023-07-20T02:12:39;96376.94;;;23.70;50.31
73024;BME280;61199;47.526;8.538;2023-07-20T02:15:06;96369.34;;;23.67;50.12
73024;BME280;61199;47.526;8.538;2023-07-20T02:17:32;96366.59;;;23.73;50.01
73024;BME280;61199;47.526;8.538;2023-07-20T02:19:59;96372.59;;;23.75;50.17
73024;BME280;61199;47.526;8.538;2023-07-20T02:22:25;96367.38;;;23.80;49.72
73024;BME280;61199;47.526;8.538;2023-07-20T02:24:51;96366.84;;;23.72;50.29
73024;BME280;61199;47.526;8.538;2023-07-20T02:27:18;96368.75;;;23.65;50.45
73024;BME280;61199;47.526;8.538;2023-07-20T02:29:44;96373.53;;;23.56;50.80
73024;BME280;61199;47.526;8.538;2023-07-20T02:32:11;96369.84;;;23.57;50.89
73024;BME280;61199;47.526;8.538;2023-07-20T02:34:37;96369.22;;;23.55;51.03
73024;BME280;61199;47.526;8.538;2023-07-20T02:37:04;96376.47;;;23.48;50.74
73024;BME280;61199;47.526;8.538;2023-07-20T02:39:30;96375.78;;;23.59;50.50
73024;BME280;61199;47.526;8.538;2023-07-20T02:41:57;96384.78;;;23.65;50.93
73024;BME280;61199;47.526;8.538;2023-07-20T02:44:23;96381.13;;;23.59;50.72
73024;BME280;61199;47.526;8.538;2023-07-20T02:46:50;96381.97;;;23.53;51.09
73024;BME280;61199;47.526;8.538;2023-07-20T02:49:16;96377.50;;;23.47;50.82
73024;BME280;61199;47.526;8.538;2023-07-20T02:51:43;96385.69;;;23.52;50.64
73024;BME280;61199;47.526;8.538;2023-07-20T02:54:09;96381.81;;;23.48;51.21
73024;BME280;61199;47.526;8.538;2023-07-20T02:56:36;96381.81;;;23.48;51.42
73024;BME280;61199;47.526;8.538;2023-07-20T02:59:02;96379.78;;;23.44;51.63
73024;BME280;61199;47.526;8.538;2023-07-20T03:01:29;96382.22;;;23.52;51.71
73024;BME280;61199;47.526;8.538;2023-07-20T03:03:55;96383.91;;;23.46;51.50
73024;BME280;61199;47.526;8.538;2023-07-20T03:06:22;96391.28;;;23.44;51.28
73024;BME280;61199;47.526;8.538;2023-07-20T03:08:49;96387.41;;;23.40;51.89
73024;BME280;61199;47.526;8.538;2023-07-20T03:11:19;96384.31;;;23.43;51.90
73024;BME280;61199;47.526;8.538;2023-07-20T03:13:47;96385.75;;;23.46;51.70
73024;BME280;61199;47.526;8.538;2023-07-20T03:16:17;96384.34;;;23.37;51.64
73024;BME280;61199;47.526;8.538;2023-07-20T03:18:44;96391.13;;;23.39;51.95
73024;BME280;61199;47.526;8.538;2023-07-20T03:21:10;96388.75;;;23.18;53.10
73024;BME280;61199;47.526;8.538;2023-07-20T03:23:40;96388.75;;;23.12;52.84
73024;BME280;61199;47.526;8.538;2023-07-20T03:26:07;96391.22;;;23.13;52.89
73024;BME280;61199;47.526;8.538;2023-07-20T03:28:37;96377.47;;;23.10;52.89
73024;BME280;61199;47.526;8.538;2023-07-20T03:31:04;96388.34;;;23.08;52.90
73024;BME280;61199;47.526;8.538;2023-07-20T03:33:31;96390.25;;;23.01;53.06
73024;BME280;61199;47.526;8.538;2023-07-20T03:35:58;96397.25;;;23.02;53.24
73024;BME280;61199;47.526;8.538;2023-07-20T03:38:25;96396.22;;;23.03;53.05
73024;BME280;61199;47.526;8.538;2023-07-20T03:40:53;96402.78;;;23.01;53.26
73024;BME280;61199;47.526;8.538;2023-07-20T03:43:21;96405.88;;;23.04;52.81
73024;BME280;61199;47.526;8.538;2023-07-20T03:45:48;96405.06;;;22.97;52.99
73024;BME280;61199;47.526;8.538;2023-07-20T03:48:16;96402.84;;;22.88;53.06
73024;BME280;61199;47.526;8.538;2023-07-20T03:50:47;96413.31;;;22.89;53.00
73024;BME280;61199;47.526;8.538;2023-07-20T03:53:14;96402.84;;;22.81;53.23
73024;BME280;61199;47.526;8.538;2023-07-20T03:55:44;96400.81;;;22.83;53.32
73024;BME280;61199;47.526;8.538;2023-07-20T03:58:10;96397.50;;;22.81;53.28
73024;BME280;61199;47.526;8.538;2023-07-20T04:00:37;96404.25;;;22.90;52.57
73024;BME280;61199;47.526;8.538;2023-07-20T04:03:03;96405.94;;;22.91;52.29
73024;BME280;61199;47.526;8.538;2023-07-20T04:05:30;96402.44;;;22.84;52.10
73024;BME280;61199;47.526;8.538;2023-07-20T04:07:56;96402.66;;;22.83;52.12
73024;BME280;61199;47.526;8.538;2023-07-20T04:10:22;96407.81;;;22.78;52.46
73024;BME280;61199;47.526;8.538;2023-07-20T04:12:49;96402.69;;;22.76;52.98
73024;BME280;61199;47.526;8.538;2023-07-20T04:15:15;96407.63;;;22.73;52.56
73024;BME280;61199;47.526;8.538;2023-07-20T04:17:42;96404.09;;;22.72;52.95
73024;BME280;61199;47.526;8.538;2023-07-20T04:20:08;96411.91;;;22.74;52.52
73024;BME280;61199;47.526;8.538;2023-07-20T04:22:35;96405.78;;;22.73;52.72
73024;BME280;61199;47.526;8.538;2023-07-20T04:25:03;96409.69;;;22.71;52.70
73024;BME280;61199;47.526;8.538;2023-07-20T04:27:30;96407.81;;;22.71;52.89
73024;BME280;61199;47.526;8.538;2023-07-20T04:29:58;96410.91;;;22.68;52.99
73024;BME280;61199;47.526;8.538;2023-07-20T04:32:26;96410.28;;;22.73;53.14
73024;BME280;61199;47.526;8.538;2023-07-20T04:34:52;96407.00;;;22.71;52.83
73024;BME280;61199;47.526;8.538;2023-07-20T04:37:19;96416.88;;;22.70;53.77
73024;BME280;61199;47.526;8.538;2023-07-20T04:39:45;96419.13;;;22.67;54.05
73024;BME280;61199;47.526;8.538;2023-07-20T04:42:12;96415.41;;;22.68;55.05
73024;BME280;61199;47.526;8.538;2023-07-20T04:44:38;96424.47;;;22.73;54.25
73024;BME280;61199;47.526;8.538;2023-07-20T04:47:05;96418.31;;;22.66;54.77
73024;BME280;61199;47.526;8.538;2023-07-20T04:49:31;96426.34;;;22.66;54.74
73024;BME280;61199;47.526;8.538;2023-07-20T04:51:58;96432.31;;;22.62;54.70
73024;BME280;61199;47.526;8.538;2023-07-20T04:54:24;96433.53;;;22.59;54.30
73024;BME280;61199;47.526;8.538;2023-07-20T04:56:53;96439.91;;;22.58;53.82
73024;BME280;61199;47.526;8.538;2023-07-20T04:59:20;96436.63;;;22.56;54.08
73024;BME280;61199;47.526;8.538;2023-07-20T05:01:46;96432.13;;;22.44;54.53
73024;BME280;61199;47.526;8.538;2023-07-20T05:04:13;96433.13;;;22.56;53.62
73024;BME280;61199;47.526;8.538;2023-07-20T05:06:41;96435.59;;;22.44;54.25
73024;BME280;61199;47.526;8.538;2023-07-20T05:09:08;96435.81;;;22.43;54.51
73024;BME280;61199;47.526;8.538;2023-07-20T05:11:34;96438.88;;;22.53;54.10
73024;BME280;61199;47.526;8.538;2023-07-20T05:14:00;96429.25;;;22.52;54.95
73024;BME280;61199;47.526;8.538;2023-07-20T05:16:27;96428.63;;;22.56;54.41
73024;BME280;61199;47.526;8.538;2023-07-20T05:18:53;96430.47;;;22.49;54.55
73024;BME280;61199;47.526;8.538;2023-07-20T05:21:20;96427.59;;;22.44;54.49
73024;BME280;61199;47.526;8.538;2023-07-20T05:23:46;96429.25;;;22.52;54.61
73024;BME280;61199;47.526;8.538;2023-07-20T05:26:12;96423.91;;;22.52;54.34
73024;BME280;61199;47.526;8.538;2023-07-20T05:28:39;96426.97;;;22.49;54.80
73024;BME280;61199;47.526;8.538;2023-07-20T05:31:05;96429.03;;;22.40;55.11
73024;BME280;61199;47.526;8.538;2023-07-20T05:33:32;96425.13;;;22.36;55.42
73024;BME280;61199;47.526;8.538;2023-07-20T05:35:59;96428.84;;;22.42;54.37
73024;BME280;61199;47.526;8.538;2023-07-20T05:38:25;96421.22;;;22.52;54.53
73024;BME280;61199;47.526;8.538;2023-07-20T05:40:52;96423.47;;;22.61;54.42
73024;BME280;61199;47.526;8.538;2023-07-20T05:43:19;96423.69;;;22.60;54.48
73024;BME280;61199;47.526;8.538;2023-07-20T05:45:45;96426.75;;;22.57;54.97
73024;BME280;61199;47.526;8.538;2023-07-20T05:48:12;96422.41;;;22.75;54.50
73024;BME280;61199;47.526;8.538;2023-07-20T05:50:42;96420.78;;;22.74;53.79
73024;BME280;61199;47.526;8.538;2023-07-20T05:53:09;96421.78;;;22.80;54.52
73024;BME280;61199;47.526;8.538;2023-07-20T05:55:36;96415.16;;;22.95;53.86
73024;BME280;61199;47.526;8.538;2023-07-20T05:58:02;96419.28;;;22.91;53.05
73024;BME280;61199;47.526;8.538;2023-07-20T06:00:30;96411.88;;;22.93;52.43
73024;BME280;61199;47.526;8.538;2023-07-20T06:02:57;96415.16;;;22.95;53.03
73024;BME280;61199;47.526;8.538;2023-07-20T06:05:23;96424.19;;;22.94;53.29
73024;BME280;61199;47.526;8.538;2023-07-20T06:07:54;96434.44;;;23.04;52.07
73024;BME280;61199;47.526;8.538;2023-07-20T06:10:21;96424.81;;;22.96;52.42
73024;BME280;61199;47.526;8.538;2023-07-20T06:12:47;96420.06;;;22.98;52.26
73024;BME280;61199;47.526;8.538;2023-07-20T06:15:28;96415.34;;;22.94;50.77
73024;BME280;61199;47.526;8.538;2023-07-20T06:17:55;96413.50;;;22.94;51.41
73024;BME280;61199;47.526;8.538;2023-07-20T06:20:23;96409.38;;;22.98;52.16
73024;BME280;61199;47.526;8.538;2023-07-20T06:22:49;96409.56;;;23.03;51.48
73024;BME280;61199;47.526;8.538;2023-07-20T06:25:16;96406.09;;;22.96;51.14
73024;BME280;61199;47.526;8.538;2023-07-20T06:27:43;96409.38;;;22.98;51.42
73024;BME280;61199;47.526;8.538;2023-07-20T06:30:10;96413.88;;;23.04;51.29
73024;BME280;61199;47.526;8.538;2023-07-20T06:32:38;96408.94;;;23.08;51.20
73024;BME280;61199;47.526;8.538;2023-07-20T06:35:05;96413.03;;;23.10;51.04
73024;BME280;61199;47.526;8.538;2023-07-20T06:37:32;96419.00;;;23.19;51.17
73024;BME280;61199;47.526;8.538;2023-07-20T06:39:59;96413.44;;;23.20;50.57
73024;BME280;61199;47.526;8.538;2023-07-20T06:42:28;96413.00;;;23.23;50.88
73024;BME280;61199;47.526;8.538;2023-07-20T06:45:15;96413.59;;;23.25;51.12
73024;BME280;61199;47.526;8.538;2023-07-20T06:47:42;96404.94;;;23.30;50.63
73024;BME280;61199;47.526;8.538;2023-07-20T06:50:09;96409.25;;;23.37;49.88
73024;BME280;61199;47.526;8.538;2023-07-20T06:52:42;96411.66;;;23.45;48.92
73024;BME280;61199;47.526;8.538;2023-07-20T06:55:09;96413.69;;;23.50;48.23
73024;BME280;61199;47.526;8.538;2023-07-20T06:57:35;96414.72;;;23.55;47.66
73024;BME280;61199;47.526;8.538;2023-07-20T07:00:02;96408.31;;;23.56;48.33
73024;BME280;61199;47.526;8.538;2023-07-20T07:02:30;96409.97;;;23.57;48.35
73024;BME280;61199;47.526;8.538;2023-07-20T07:04:57;96407.03;;;23.65;47.92
73024;BME280;61199;47.526;8.538;2023-07-20T07:07:43;96417.28;;;23.68;47.90
73024;BME280;61199;47.526;8.538;2023-07-20T07:10:10;96415.06;;;23.65;47.61
73024;BME280;61199;47.526;8.538;2023-07-20T07:12:36;96413.38;;;23.71;47.53
73024;BME280;61199;47.526;8.538;2023-07-20T07:15:04;96420.91;;;23.80;47.28
73024;BME280;61199;47.526;8.538;2023-07-20T07:17:32;96416.78;;;23.84;46.76
73024;BME280;61199;47.526;8.538;2023-07-20T07:20:00;96420.22;;;23.91;46.15
73024;BME280;61199;47.526;8.538;2023-07-20T07:22:26;96425.31;;;23.99;47.42
73024;BME280;61199;47.526;8.538;2023-07-20T07:24:52;96408.66;;;23.97;47.61
73024;BME280;61199;47.526;8.538;2023-07-20T07:27:20;96413.22;;;23.97;47.82
73024;BME280;61199;47.526;8.538;2023-07-20T07:29:46;96415.31;;;23.88;48.49
73024;BME280;61199;47.526;8.538;2023-07-20T07:32:13;96411.44;;;23.84;48.08
73024;BME280;61199;47.526;8.538;2023-07-20T07:34:39;96413.47;;;23.89;48.29
73024;BME280;61199;47.526;8.538;2023-07-20T07:37:06;96421.66;;;23.94;48.85
73024;BME280;61199;47.526;8.538;2023-07-20T07:39:32;96407.22;;;24.01;48.15
73024;BME280;61199;47.526;8.538;2023-07-20T07:42:01;96411.69;;;24.07;46.99
73024;BME280;61199;47.526;8.538;2023-07-20T07:44:27;96407.53;;;24.11;46.59
73024;BME280;61199;47.526;8.538;2023-07-20T07:46:54;96410.22;;;24.11;47.27
73024;BME280;61199;47.526;8.538;2023-07-20T07:49:20;96403.00;;;24.12;46.68
73024;BME280;61199;47.526;8.538;2023-07-20T07:51:47;96402.13;;;24.18;46.81
73024;BME280;61199;47.526;8.538;2023-07-20T07:54:14;96401.47;;;24.22;46.59
73024;BME280;61199;47.526;8.538;2023-07-20T07:56:41;96400.81;;;24.27;46.58
73024;BME280;61199;47.526;8.538;2023-07-20T07:59:07;96400.59;;;24.28;45.59
73024;BME280;61199;47.526;8.538;2023-07-20T08:01:34;96402.38;;;24.34;45.55
73024;BME280;61199;47.526;8.538;2023-07-20T08:04:00;96405.22;;;24.39;46.15
73024;BME280;61199;47.526;8.538;2023-07-20T08:06:27;96407.84;;;24.45;45.60
73024;BME280;61199;47.526;8.538;2023-07-20T08:08:54;96405.09;;;24.52;45.40
73024;BME280;61199;47.526;8.538;2023-07-20T08:11:20;96407.28;;;24.37;45.33
73024;BME280;61199;47.526;8.538;2023-07-20T08:13:47;96408.63;;;24.28;45.69
73024;BME280;61199;47.526;8.538;2023-07-20T08:16:13;96406.03;;;24.39;44.98
73024;BME280;61199;47.526;8.538;2023-07-20T08:18:40;96389.66;;;24.54;44.66
73024;BME280;61199;47.526;8.538;2023-07-20T08:21:07;96394.88;;;24.67;45.32
73024;BME280;61199;47.526;8.538;2023-07-20T08:23:34;96391.66;;;24.76;44.71
73024;BME280;61199;47.526;8.538;2023-07-20T08:26:00;96396.16;;;24.82;44.16
73024;BME280;61199;47.526;8.538;2023-07-20T08:28:27;96394.91;;;24.85;43.82
73024;BME280;61199;47.526;8.538;2023-07-20T08:30:55;96391.97;;;24.86;43.40
73024;BME280;61199;47.526;8.538;2023-07-20T08:33:21;96393.56;;;24.94;43.75
73024;BME280;61199;47.526;8.538;2023-07-20T08:35:49;96396.75;;;25.02;43.33
73024;BME280;61199;47.526;8.538;2023-07-20T08:38:15;96397.69;;;25.08;43.40
73024;BME280;61199;47.526;8.538;2023-07-20T08:40:44;96399.72;;;25.12;42.74
73024;BME280;61199;47.526;8.538;2023-07-20T08:43:12;96395.47;;;25.05;43.41
73024;BME280;61199;47.526;8.538;2023-07-20T08:45:40;96395.59;;;25.10;43.36
73024;BME280;61199;47.526;8.538;2023-07-20T08:48:07;96387.22;;;25.24;42.80
73024;BME280;61199;47.526;8.538;2023-07-20T08:50:35;96385.13;;;25.26;42.79
73024;BME280;61199;47.526;8.538;2023-07-20T08:53:02;96385.34;;;25.25;43.09
73024;BME280;61199;47.526;8.538;2023-07-20T08:55:29;96384.56;;;25.36;42.83
73024;BME280;61199;47.526;8.538;2023-07-20T08:57:58;96379.41;;;25.23;43.74
73024;BME280;61199;47.526;8.538;2023-07-20T09:00:25;96372.22;;;25.17;43.35
73024;BME280;61199;47.526;8.538;2023-07-20T09:02:53;96377.94;;;25.20;43.84
73024;BME280;61199;47.526;8.538;2023-07-20T09:05:22;96379.41;;;25.23;44.37
73024;BME280;61199;47.526;8.538;2023-07-20T09:07:52;96374.78;;;25.12;44.82
73024;BME280;61199;47.526;8.538;2023-07-20T09:10:22;96382.63;;;24.53;45.02
73024;BME280;61199;47.526;8.538;2023-07-20T09:12:51;96383.03;;;24.32;46.21
73024;BME280;61199;47.526;8.538;2023-07-20T09:15:19;96385.06;;;24.37;45.39
73024;BME280;61199;47.526;8.538;2023-07-20T09:17:50;96377.81;;;24.37;45.42
73024;BME280;61199;47.526;8.538;2023-07-20T09:20:18;96374.81;;;24.34;45.41
73024;BME280;61199;47.526;8.538;2023-07-20T09:22:50;96366.66;;;24.64;45.56
73024;BME280;61199;47.526;8.538;2023-07-20T09:25:19;96366.09;;;24.80;44.25
73024;BME280;61199;47.526;8.538;2023-07-20T09:27:49;96351.53;;;24.88;44.73
73024;BME280;61199;47.526;8.538;2023-07-20T09:30:18;96364.19;;;24.99;44.01
73024;BME280;61199;47.526;8.538;2023-07-20T09:32:46;96361.09;;;25.02;44.10
73024;BME280;61199;47.526;8.538;2023-07-20T09:35:18;96359.13;;;25.09;43.91
73024;BME280;61199;47.526;8.538;2023-07-20T09:37:57;96353.75;;;25.09;44.57
73024;BME280;61199;47.526;8.538;2023-07-20T09:40:27;96350.47;;;25.07;44.92
73024;BME280;61199;47.526;8.538;2023-07-20T09:42:59;96351.31;;;25.07;43.79
73024;BME280;61199;47.526;8.538;2023-07-20T09:45:33;96342.47;;;24.89;44.58
73024;BME280;61199;47.526;8.538;2023-07-20T09:48:04;96341.47;;;25.01;44.25
73024;BME280;61199;47.526;8.538;2023-07-20T09:50:43;96345.00;;;24.84;43.77
73024;BME280;61199;47.526;8.538;2023-07-20T09:53:13;96337.84;;;24.60;44.52
73024;BME280;61199;47.526;8.538;2023-07-20T09:55:41;96338.03;;;24.40;45.79
73024;BME280;61199;47.526;8.538;2023-07-20T09:58:10;96335.63;;;24.33;45.03
73024;BME280;61199;47.526;8.538;2023-07-20T10:00:38;96340.03;;;24.45;45.61
73024;BME280;61199;47.526;8.538;2023-07-20T10:03:08;96341.97;;;24.80;44.44
73024;BME280;61199;47.526;8.538;2023-07-20T10:05:39;96339.50;;;24.79;44.33
73024;BME280;61199;47.526;8.538;2023-07-20T10:08:11;96336.22;;;24.59;44.58
73024;BME280;61199;47.526;8.538;2023-07-20T10:10:42;96340.16;;;24.14;45.23
73024;BME280;61199;47.526;8.538;2023-07-20T10:13:18;96332.91;;;24.21;46.09
73024;BME280;61199;47.526;8.538;2023-07-20T10:15:50;96323.81;;;24.22;45.40
73024;BME280;61199;47.526;8.538;2023-07-20T10:18:30;96332.44;;;24.24;45.45
73024;BME280;61199;47.526;8.538;2023-07-20T10:20:59;96317.47;;;24.59;45.21
73024;BME280;61199;47.526;8.538;2023-07-20T10:23:30;96319.69;;;24.62;44.21
73024;BME280;61199;47.526;8.538;2023-07-20T10:25:57;96319.38;;;24.88;43.12
73024;BME280;61199;47.526;8.538;2023-07-20T10:28:27;96314.88;;;24.70;40.96
73024;BME280;61199;47.526;8.538;2023-07-20T10:30:53;96306.16;;;24.75;42.01
73024;BME280;61199;47.526;8.538;2023-07-20T10:33:20;96305.13;;;24.76;42.61
73024;BME280;61199;47.526;8.538;2023-07-20T10:35:57;96310.59;;;24.81;42.12
73024;BME280;61199;47.526;8.538;2023-07-20T10:38:43;96308.84;;;24.75;42.86
73024;BME280;61199;47.526;8.538;2023-07-20T10:41:23;96305.94;;;25.06;42.39
73024;BME280;61199;47.526;8.538;2023-07-20T10:43:58;96303.72;;;25.21;41.44
73024;BME280;61199;47.526;8.538;2023-07-20T10:49:09;96291.00;;;25.28;42.33
73024;BME280;61199;47.526;8.538;2023-07-20T10:51:45;96287.66;;;25.14;42.06
73024;BME280;61199;47.526;8.538;2023-07-20T10:56:44;96288.00;;;25.24;42.05
73024;BME280;61199;47.526;8.538;2023-07-20T11:01:50;96275.72;;;24.99;43.35
73024;BME280;61199;47.526;8.538;2023-07-20T11:04:17;96269.22;;;25.36;43.02
73024;BME280;61199;47.526;8.538;2023-07-20T11:06:46;96274.31;;;25.26;41.53
73024;BME280;61199;47.526;8.538;2023-07-20T11:09:15;96266.34;;;25.49;42.35
73024;BME280;61199;47.526;8.538;2023-07-20T11:11:43;96267.06;;;25.56;41.18
73024;BME280;61199;47.526;8.538;2023-07-20T11:14:20;96272.47;;;25.79;42.19
73024;BME280;61199;47.526;8.538;2023-07-20T11:16:48;96259.53;;;25.99;40.04
73024;BME280;61199;47.526;8.538;2023-07-20T11:19:23;96253.94;;;26.12;40.11
73024;BME280;61199;47.526;8.538;2023-07-20T11:21:55;96258.97;;;26.20;39.73
73024;BME280;61199;47.526;8.538;2023-07-20T11:24:29;96259.84;;;26.37;40.65
73024;BME280;61199;47.526;8.538;2023-07-20T11:26:55;96252.00;;;26.47;40.57
73024;BME280;61199;47.526;8.538;2023-07-20T11:29:22;96251.13;;;26.07;40.06
73024;BME280;61199;47.526;8.538;2023-07-20T11:31:57;96255.78;;;26.00;40.77
73024;BME280;61199;47.526;8.538;2023-07-20T11:34:27;96247.97;;;26.10;40.40
73024;BME280;61199;47.526;8.538;2023-07-20T11:36:54;96253.91;;;26.23;39.53
73024;BME280;61199;47.526;8.538;2023-07-20T11:39:23;96245.53;;;26.20;40.22
73024;BME280;61199;47.526;8.538;2023-07-20T11:41:53;96240.59;;;26.40;39.49
73024;BME280;61199;47.526;8.538;2023-07-20T11:44:22;96238.69;;;26.52;39.62
73024;BME280;61199;47.526;8.538;2023-07-20T11:47:08;96229.31;;;26.66;38.39
73024;BME280;61199;47.526;8.538;2023-07-20T11:49:35;96227.59;;;26.60;39.25
73024;BME280;61199;47.526;8.538;2023-07-20T11:52:08;96225.31;;;26.68;38.47
73024;BME280;61199;47.526;8.538;2023-07-20T11:54:35;96226.03;;;26.64;39.18
73024;BME280;61199;47.526;8.538;2023-07-20T11:57:02;96228.16;;;26.62;39.09
73024;BME280;61199;47.526;8.538;2023-07-20T11:59:29;96221.00;;;26.67;38.10
73024;BME280;61199;47.526;8.538;2023-07-20T12:02:01;96218.69;;;26.87;38.01
73024;BME280;61199;47.526;8.538;2023-07-20T12:04:31;96207.00;;;26.93;37.79
73024;BME280;61199;47.526;8.538;2023-07-20T12:06:58;96213.94;;;27.06;37.33
73024;BME280;61199;47.526;8.538;2023-07-20T12:09:24;96201.03;;;27.19;38.15
73024;BME280;61199;47.526;8.538;2023-07-20T12:12:09;96211.22;;;27.17;37.50
73024;BME280;61199;47.526;8.538;2023-07-20T12:14:38;96207.16;;;27.31;37.09
73024;BME280;61199;47.526;8.538;2023-07-20T12:17:04;96204.31;;;27.38;37.11
73024;BME280;61199;47.526;8.538;2023-07-20T12:19:38;96206.25;;;27.26;36.86
73024;BME280;61199;47.526;8.538;2023-07-20T12:22:05;96201.38;;;27.23;36.52
73024;BME280;61199;47.526;8.538;2023-07-20T12:24:32;96195.00;;;27.29;37.47
73024;BME280;61199;47.526;8.538;2023-07-20T12:26:59;96188.75;;;27.40;37.30
73024;BME280;61199;47.526;8.538;2023-07-20T12:29:25;96192.81;;;27.59;36.84
73024;BME280;61199;47.526;8.538;2023-07-20T12:31:52;96187.59;;;27.69;36.96
73024;BME280;61199;47.526;8.538;2023-07-20T12:34:18;96191.50;;;27.45;35.34
73024;BME280;61199;47.526;8.538;2023-07-20T12:36:45;96191.56;;;27.17;36.38
73024;BME280;61199;47.526;8.538;2023-07-20T12:39:11;96182.94;;;27.15;36.02
73024;BME280;61199;47.526;8.538;2023-07-20T12:41:38;96176.34;;;27.39;35.96
73024;BME280;61199;47.526;8.538;2023-07-20T12:44:04;96180.66;;;27.56;35.64
73024;BME280;61199;47.526;8.538;2023-07-20T12:46:31;96175.94;;;27.63;35.39
73024;BME280;61199;47.526;8.538;2023-07-20T12:49:01;96177.13;;;27.56;35.36
73024;BME280;61199;47.526;8.538;2023-07-20T12:51:27;96178.63;;;27.14;36.20
73024;BME280;61199;47.526;8.538;2023-07-20T12:53:54;96170.97;;;27.11;36.23
73024;BME280;61199;47.526;8.538;2023-07-20T12:56:20;96159.22;;;27.28;36.33
73024;BME280;61199;47.526;8.538;2023-07-20T12:58:50;96157.88;;;27.64;36.03
73024;BME280;61199;47.526;8.538;2023-07-20T13:01:16;96157.63;;;27.82;35.29
73024;BME280;61199;47.526;8.538;2023-07-20T13:03:43;96157.72;;;27.87;35.20
73024;BME280;61199;47.526;8.538;2023-07-20T13:06:12;96152.66;;;27.90;35.11
73024;BME280;61199;47.526;8.538;2023-07-20T13:08:42;96154.09;;;27.97;35.86
73024;BME280;61199;47.526;8.538;2023-07-20T13:11:08;96151.03;;;28.10;35.66
73024;BME280;61199;47.526;8.538;2023-07-20T13:13:35;96146.41;;;28.27;34.80
73024;BME280;61199;47.526;8.538;2023-07-20T13:16:02;96145.56;;;28.43;34.87
73024;BME280;61199;47.526;8.538;2023-07-20T13:18:28;96133.88;;;28.59;34.42